Time;durP1;ratioP1;P1;durP2;ratioP2;P2;SDS_P1;SDS_P2;PMS_P1;PMS_P2;Temp;Humidity;BMP_temperature;BMP_pressure;BME280_temperature;BME280_humidity;BME280_pressure;Samples;Min_cycle;Max_cycle;Signal;HPM_P1;HPM_P2
2021/04/16 00:00:40;;;;;;;9.27;6.50;;;21.10;90.60;;;;;;5073416;28;20028;-61
2021/04/16 00:03:08;;;;;;;8.60;6.63;;;21.50;90.80;;;;;;5073461;28;20060;-60
2021/04/16 00:05:38;;;;;;;7.72;6.50;;;21.80;90.40;;;;;;5073318;28;20500;-60
2021/04/16 00:08:15;;;;;;;6.95;6.05;;;21.70;90.80;;;;;;5073196;28;20025;-60
2021/04/16 00:10:50;;;;;;;6.38;5.70;;;21.70;91.40;;;;;;5073296;28;20029;-59
2021/04/16 00:13:19;;;;;;;8.48;5.75;;;22.00;90.60;;;;;;5073352;28;20426;-59
2021/04/16 00:15:47;;;;;;;7.20;5.70;;;22.10;91.50;;;;;;5073198;28;20020;-61
2021/04/16 00:18:18;;;;;;;6.82;6.10;;;22.00;91.40;;;;;;5072481;28;20025;-60
2021/04/16 00:20:46;;;;;;;6.65;6.05;;;22.10;91.80;;;;;;5073288;28;20102;-61
2021/04/16 00:23:13;;;;;;;9.00;6.30;;;22.10;91.50;;;;;;5073134;28;20496;-59
2021/04/16 00:25:41;;;;;;;9.40;6.30;;;22.40;91.00;;;;;;5073088;28;20020;-58
2021/04/16 00:28:10;;;;;;;7.40;5.97;;;22.50;91.10;;;;;;5073081;28;20048;-59
2021/04/16 00:30:47;;;;;;;11.02;6.53;;;22.70;91.40;;;;;;5073047;28;20169;-60
2021/04/16 00:33:15;;;;;;;7.05;6.40;;;22.60;91.70;;;;;;5073189;28;20017;-59
2021/04/16 00:35:43;;;;;;;7.20;6.28;;;22.60;91.70;;;;;;5073136;28;20032;-60
2021/04/16 00:38:11;;;;;;;8.00;6.25;;;22.60;92.40;;;;;;5073146;28;20074;-61
2021/04/16 00:40:46;;;;;;;9.40;5.82;;;22.80;92.20;;;;;;5071833;28;20055;-60
2021/04/16 00:43:17;;;;;;;6.50;5.90;;;22.70;92.20;;;;;;5073027;28;20030;-60
2021/04/16 00:45:45;;;;;;;6.35;5.72;;;22.90;92.30;;;;;;5072719;28;20488;-61
2021/04/16 00:48:32;;;;;;;9.85;6.50;;;23.10;91.60;;;;;;5073003;28;20028;-59
2021/04/16 00:51:04;;;;;;;8.82;6.53;;;23.00;92.70;;;;;;5072924;28;20071;-59
2021/04/16 00:53:33;;;;;;;6.45;5.70;;;22.50;92.60;;;;;;5072895;28;20021;-61
2021/04/16 00:56:01;;;;;;;8.43;5.88;;;21.80;93.30;;;;;;5072804;28;20104;-58
2021/04/16 00:58:31;;;;;;;11.20;5.95;;;21.70;93.80;;;;;;5072829;28;20090;-62
2021/04/16 01:01:02;;;;;;;8.60;5.80;;;21.70;94.20;;;;;;5072794;28;20569;-60
2021/04/16 01:03:29;;;;;;;7.63;6.07;;;21.40;95.00;;;;;;5073319;28;20499;-62
2021/04/16 01:06:04;;;;;;;9.98;5.80;;;21.40;95.00;;;;;;5072915;28;20432;-62
2021/04/16 01:08:32;;;;;;;10.80;6.40;;;21.50;95.30;;;;;;5071664;28;20028;-60
2021/04/16 01:11:00;;;;;;;10.75;6.25;;;21.60;95.80;;;;;;5072803;28;20021;-63
2021/04/16 01:13:27;;;;;;;14.15;6.35;;;21.90;95.90;;;;;;5072671;28;20024;-59
2021/04/16 01:16:00;;;;;;;7.57;6.03;;;22.10;95.80;;;;;;5071601;28;20043;-62
2021/04/16 01:18:37;;;;;;;7.07;6.30;;;22.30;95.70;;;;;;5072694;28;20485;-61
2021/04/16 01:21:09;;;;;;;12.48;6.78;;;22.40;95.90;;;;;;5072658;28;20079;-64
2021/04/16 01:24:01;;;;;;;12.63;6.20;;;22.70;96.00;;;;;;5072605;28;20107;-61
2021/04/16 01:26:40;;;;;;;13.10;6.10;;;22.30;96.50;;;;;;5072726;28;20025;-61
2021/04/16 01:29:08;;;;;;;12.70;6.78;;;22.30;96.60;;;;;;5071451;28;20021;-58
2021/04/16 01:31:36;;;;;;;11.90;6.78;;;22.90;96.10;;;;;;5076279;28;20412;-58
2021/04/16 01:34:03;;;;;;;12.30;6.70;;;23.20;95.80;;;;;;5076073;28;20427;-60
2021/04/16 01:36:34;;;;;;;16.42;7.15;;;22.50;96.50;;;;;;5076199;28;20103;-61
2021/04/16 01:39:04;;;;;;;13.90;6.55;;;22.30;96.70;;;;;;5075859;28;20044;-62
2021/04/16 01:41:32;;;;;;;13.88;7.85;;;21.90;97.00;;;;;;5074752;28;20040;-61
2021/04/16 01:44:08;;;;;;;12.00;6.55;;;21.40;97.20;;;;;;5075999;28;20028;-61
2021/04/16 01:46:59;;;;;;;13.75;6.47;;;21.30;98.30;;;;;;5075842;28;20016;-62
2021/04/16 01:49:30;;;;;;;15.30;6.85;;;21.30;98.40;;;;;;5075866;28;20442;-62
2021/04/16 01:51:58;;;;;;;17.38;6.30;;;20.90;98.20;;;;;;5075827;28;20103;-62
2021/04/16 01:54:32;;;;;;;19.15;7.03;;;20.80;98.40;;;;;;5075825;28;20427;-64
2021/04/16 01:57:03;;;;;;;15.65;6.80;;;21.00;99.00;;;;;;5074394;28;20056;-56
2021/04/16 01:59:35;;;;;;;12.30;7.10;;;20.80;98.60;;;;;;5076064;28;20024;-62
2021/04/16 02:02:04;;;;;;;11.02;6.78;;;20.90;98.50;;;;;;5075679;28;20060;-58
2021/04/16 02:04:32;;;;;;;14.77;6.87;;;21.00;98.80;;;;;;5075541;28;20020;-61
2021/04/16 02:07:00;;;;;;;10.35;7.60;;;21.20;98.60;;;;;;5075675;28;20021;-60
2021/04/16 02:09:32;;;;;;;11.85;6.60;;;21.00;98.30;;;;;;5075646;28;20024;-61
2021/04/16 02:12:00;;;;;;;10.55;6.72;;;21.00;97.80;;;;;;5075872;28;20556;-60
2021/04/16 02:14:30;;;;;;;13.13;6.70;;;21.00;98.10;;;;;;5075497;28;20027;-64
2021/04/16 02:17:02;;;;;;;11.95;7.72;;;21.10;97.80;;;;;;5074361;28;20362;-57
2021/04/16 02:19:30;;;;;;;10.80;7.05;;;21.20;97.10;;;;;;5075542;28;20075;-54
2021/04/16 02:21:57;;;;;;;12.43;7.40;;;20.80;97.20;;;;;;5075311;28;20017;-52
2021/04/16 02:24:25;;;;;;;13.63;8.18;;;20.80;97.50;;;;;;5075219;28;20385;-53
2021/04/16 02:26:52;;;;;;;13.00;8.00;;;21.00;97.60;;;;;;5075340;28;20027;-53
2021/04/16 02:29:22;;;;;;;11.13;6.90;;;20.90;97.10;;;;;;5075352;28;20412;-56
2021/04/16 02:31:50;;;;;;;10.45;6.80;;;21.30;96.70;;;;;;5075271;28;20430;-55
2021/04/16 02:34:24;;;;;;;10.40;6.50;;;21.50;96.10;;;;;;5075175;28;20045;-53
2021/04/16 02:36:55;;;;;;;13.18;7.30;;;21.90;96.50;;;;;;5075200;28;20039;-55
2021/04/16 02:39:22;;;;;;;;;;;22.20;95.90;;;;;;5075739;28;20063;-54
2021/04/16 02:41:50;;;;;;;11.50;7.13;;;22.00;95.60;;;;;;5074644;28;20447;-52
2021/04/16 02:44:18;;;;;;;10.90;6.82;;;21.30;96.10;;;;;;5075046;28;20036;-55
2021/04/16 02:46:45;;;;;;;15.07;6.50;;;21.50;97.00;;;;;;5074976;28;20020;-53
2021/04/16 02:49:13;;;;;;;11.73;6.90;;;21.20;96.40;;;;;;5074895;28;20028;-55
2021/04/16 02:51:41;;;;;;;10.90;6.80;;;21.00;97.00;;;;;;5075055;28;20508;-54
2021/04/16 02:54:08;;;;;;;10.00;6.15;;;20.80;97.40;;;;;;5074952;28;20021;-56
2021/04/16 02:56:36;;;;;;;10.70;6.45;;;20.60;97.90;;;;;;5074712;28;20114;-51
2021/04/16 02:59:04;;;;;;;10.20;6.78;;;20.60;98.00;;;;;;5074727;28;20048;-53
2021/04/16 03:01:32;;;;;;;14.20;6.90;;;20.50;98.00;;;;;;5074748;28;20028;-52
2021/04/16 03:03:59;;;;;;;12.48;6.28;;;20.40;98.10;;;;;;5074740;28;20021;-54
2021/04/16 03:06:27;;;;;;;12.90;6.65;;;20.20;98.40;;;;;;5074695;28;20016;-55
2021/04/16 03:08:59;;;;;;;10.00;6.22;;;20.30;98.50;;;;;;5074635;28;20016;-53
2021/04/16 03:11:28;;;;;;;14.18;6.40;;;20.10;98.40;;;;;;5074582;28;20023;-55
2021/04/16 03:13:56;;;;;;;10.65;6.05;;;20.20;98.80;;;;;;5074491;28;20365;-54
2021/04/16 03:16:26;;;;;;;13.60;6.18;;;20.00;98.80;;;;;;5074193;28;20028;-53
2021/04/16 03:18:59;;;;;;;13.13;5.97;;;20.00;98.00;;;;;;5074719;28;20032;-59
2021/04/16 03:21:27;;;;;;;7.90;5.60;;;20.20;98.50;;;;;;5074418;28;20020;-56
2021/04/16 03:23:54;;;;;;;11.25;5.72;;;20.40;97.50;;;;;;5072942;28;20085;-56
2021/04/16 03:26:23;;;;;;;11.35;6.05;;;20.50;97.80;;;;;;5074229;28;20029;-57
2021/04/16 03:28:55;;;;;;;11.10;6.70;;;20.20;97.90;;;;;;5074268;28;20488;-63
2021/04/16 03:31:23;;;;;;;8.15;5.35;;;20.10;97.60;;;;;;5072884;28;20081;-64
2021/04/16 03:33:51;;;;;;;10.32;5.70;;;20.30;97.40;;;;;;5073005;28;20025;-60
2021/04/16 03:36:18;;;;;;;10.90;5.95;;;20.10;97.20;;;;;;5074031;28;20036;-62
2021/04/16 03:38:47;;;;;;;12.00;6.55;;;20.20;98.00;;;;;;5073843;28;20051;-63
2021/04/16 03:41:15;;;;;;;8.70;5.53;;;19.90;98.40;;;;;;5073899;28;20035;-65
2021/04/16 03:43:43;;;;;;;11.40;6.00;;;19.80;97.70;;;;;;5073908;28;20074;-57
2021/04/16 03:46:11;;;;;;;8.68;5.93;;;19.70;98.70;;;;;;5073957;28;20032;-58
2021/04/16 03:48:41;;;;;;;7.35;6.30;;;19.80;98.10;;;;;;5074033;28;20059;-58
2021/04/16 03:51:09;;;;;;;11.57;5.72;;;19.80;98.30;;;;;;5073704;28;20404;-58
2021/04/16 03:53:39;;;;;;;11.10;5.72;;;19.90;98.70;;;;;;5073171;28;20103;-58
2021/04/16 03:56:08;;;;;;;10.98;7.15;;;19.80;98.30;;;;;;5072339;28;20035;-55
2021/04/16 03:58:38;;;;;;;13.07;8.38;;;19.80;98.80;;;;;;5073672;28;20025;-57
2021/04/16 04:01:07;;;;;;;16.77;9.15;;;19.90;99.00;;;;;;5073570;28;20059;-61
2021/04/16 04:03:35;;;;;;;11.18;6.35;;;19.90;98.30;;;;;;5073488;28;20481;-62
2021/04/16 04:06:03;;;;;;;11.88;6.10;;;20.00;98.80;;;;;;5072026;28;20029;-62
2021/04/16 04:08:30;;;;;;;13.05;6.13;;;20.10;98.00;;;;;;5073481;28;20028;-60
2021/04/16 04:10:57;;;;;;;7.72;5.78;;;20.10;98.20;;;;;;5073414;28;20016;-60
2021/04/16 04:13:25;;;;;;;11.43;6.05;;;20.10;97.90;;;;;;5073348;28;20012;-58
2021/04/16 04:15:52;;;;;;;8.82;5.32;;;20.00;97.90;;;;;;5073348;28;20397;-58
2021/04/16 04:18:19;;;;;;;12.70;5.90;;;19.80;98.80;;;;;;5073301;28;20021;-59
2021/04/16 04:20:47;;;;;;;9.95;5.20;;;19.70;98.90;;;;;;5073239;28;20027;-58
2021/04/16 04:23:14;;;;;;;10.07;5.63;;;19.70;99.00;;;;;;5073348;28;20150;-59
2021/04/16 04:25:41;;;;;;;14.07;6.30;;;19.80;98.80;;;;;;5073045;28;20028;-59
2021/04/16 04:28:09;;;;;;;9.57;6.43;;;20.00;99.10;;;;;;5073043;28;20028;-59
2021/04/16 04:30:37;;;;;;;9.00;6.30;;;20.10;98.20;;;;;;5073120;28;20099;-59
2021/04/16 04:33:06;;;;;;;11.27;5.82;;;19.90;98.50;;;;;;5073088;28;20377;-59
2021/04/16 04:35:34;;;;;;;12.80;6.25;;;20.10;98.20;;;;;;5073088;28;20370;-59
2021/04/16 04:38:02;;;;;;;11.18;6.13;;;20.20;98.10;;;;;;5073028;28;20112;-59
2021/04/16 04:40:30;;;;;;;10.27;5.50;;;20.20;98.30;;;;;;5072776;28;20041;-58
2021/04/16 04:42:57;;;;;;;12.25;6.55;;;20.40;98.20;;;;;;5073197;28;20032;-58
2021/04/16 04:45:25;;;;;;;8.48;5.20;;;20.40;97.90;;;;;;5072833;28;20071;-59
2021/04/16 04:47:53;;;;;;;13.27;6.70;;;20.40;97.50;;;;;;5072820;28;20028;-59
2021/04/16 04:50:22;;;;;;;9.35;7.07;;;20.30;97.80;;;;;;5072806;28;20025;-58
2021/04/16 04:52:50;;;;;;;12.40;5.95;;;20.50;97.60;;;;;;5072800;28;20473;-59
2021/04/16 04:55:33;;;;;;;9.68;6.10;;;20.60;97.50;;;;;;5072829;28;20385;-58
2021/04/16 04:58:01;;;;;;;11.15;6.22;;;20.50;98.10;;;;;;5072903;28;20052;-59
2021/04/16 05:00:29;;;;;;;9.93;5.93;;;20.60;98.20;;;;;;5072809;28;20029;-58
2021/04/16 05:02:57;;;;;;;10.38;6.03;;;20.90;98.00;;;;;;5072795;28;20066;-58
2021/04/16 05:05:25;;;;;;;8.55;5.82;;;20.70;97.50;;;;;;5076821;28;20017;-58
2021/04/16 05:07:52;;;;;;;11.38;5.68;;;20.50;97.40;;;;;;5076940;28;20104;-59
2021/04/16 05:10:22;;;;;;;10.65;5.65;;;20.40;97.00;;;;;;5076900;28;20017;-59
2021/04/16 05:12:50;;;;;;;8.77;5.82;;;20.50;97.60;;;;;;5076722;28;20103;-59
2021/04/16 05:15:19;;;;;;;9.73;5.70;;;20.40;97.50;;;;;;5076805;28;20040;-59
2021/04/16 05:17:46;;;;;;;10.60;5.88;;;20.30;98.00;;;;;;5076945;28;20020;-59
2021/04/16 05:20:14;;;;;;;11.98;6.38;;;20.10;97.70;;;;;;5076687;28;20450;-58
2021/04/16 05:22:42;;;;;;;9.13;6.68;;;20.10;97.80;;;;;;5076558;28;20473;-58
2021/04/16 05:25:10;;;;;;;13.35;7.88;;;20.00;97.60;;;;;;5076554;28;20024;-59
2021/04/16 05:27:38;;;;;;;7.80;6.65;;;20.10;97.70;;;;;;5076511;28;20020;-59
2021/04/16 05:30:07;;;;;;;10.18;7.05;;;19.80;97.90;;;;;;5076373;28;20025;-60
2021/04/16 05:32:35;;;;;;;7.72;6.90;;;19.70;97.80;;;;;;5076280;28;20419;-58
2021/04/16 05:35:02;;;;;;;11.90;6.47;;;19.60;98.10;;;;;;5076253;28;20028;-58
2021/04/16 05:37:30;;;;;;;9.95;5.65;;;19.70;98.60;;;;;;5076182;28;20369;-58
2021/04/16 05:39:57;;;;;;;8.25;5.18;;;19.70;98.60;;;;;;5075918;28;20075;-59
2021/04/16 05:42:24;;;;;;;8.23;5.63;;;19.80;98.40;;;;;;5076114;28;20156;-59
2021/04/16 05:44:54;;;;;;;9.68;6.15;;;19.70;98.50;;;;;;5076086;28;20058;-59
2021/04/16 05:47:21;;;;;;;8.05;5.60;;;19.60;98.00;;;;;;5075989;28;20029;-59
2021/04/16 05:49:48;;;;;;;8.40;5.43;;;19.70;99.10;;;;;;5076104;28;20039;-58
2021/04/16 05:52:16;;;;;;;8.35;5.10;;;19.60;97.50;;;;;;5075998;28;20074;-58
2021/04/16 05:54:43;;;;;;;9.30;5.95;;;19.60;98.40;;;;;;5076155;28;20040;-59
2021/04/16 05:57:10;;;;;;;6.75;5.82;;;19.70;98.10;;;;;;5075881;28;20056;-60
2021/04/16 05:59:38;;;;;;;9.73;6.15;;;19.60;97.40;;;;;;5076095;28;20024;-58
2021/04/16 06:02:33;;;;;;;7.72;6.55;;;19.40;98.00;;;;;;5075791;28;20017;-59
2021/04/16 06:05:02;;;;;;;9.00;8.00;;;19.40;98.20;;;;;;5075462;28;20507;-58
2021/04/16 06:07:31;;;;;;;9.80;8.07;;;19.40;98.00;;;;;;5075674;28;20095;-59
2021/04/16 06:09:59;;;;;;;8.52;5.93;;;19.40;98.10;;;;;;5075529;28;20282;-58
2021/04/16 06:12:27;;;;;;;8.45;5.88;;;19.40;97.80;;;;;;5075773;28;20021;-59
2021/04/16 06:14:54;;;;;;;8.60;6.32;;;19.30;98.30;;;;;;5074677;28;20058;-62
2021/04/16 06:17:22;;;;;;;9.57;5.43;;;19.40;97.60;;;;;;5075470;28;20056;-59
2021/04/16 06:19:50;;;;;;;9.85;6.03;;;19.30;98.30;;;;;;5075463;28;20028;-58
2021/04/16 06:22:22;;;;;;;9.38;5.82;;;19.40;98.70;;;;;;5075386;28;20025;-59
2021/04/16 06:24:50;;;;;;;7.45;5.55;;;19.40;98.30;;;;;;5075284;28;20025;-59
2021/04/16 06:27:19;;;;;;;7.97;6.10;;;19.30;98.20;;;;;;5075416;28;20031;-60
2021/04/16 06:29:46;;;;;;;14.48;5.97;;;19.20;98.20;;;;;;5075213;28;20024;-58
2021/04/16 06:32:16;;;;;;;6.35;5.60;;;19.20;98.50;;;;;;5075109;28;20025;-59
2021/04/16 06:34:44;;;;;;;9.38;6.05;;;19.10;98.60;;;;;;5075146;28;20020;-58
2021/04/16 06:37:11;;;;;;;8.32;5.65;;;19.00;98.70;;;;;;5075183;28;20418;-60
2021/04/16 06:39:39;;;;;;;13.73;5.78;;;19.00;99.00;;;;;;5074748;28;20049;-59
2021/04/16 06:42:23;;;;;;;10.43;5.78;;;19.00;98.90;;;;;;5074989;28;20082;-58
2021/04/16 06:44:55;;;;;;;10.68;6.18;;;19.00;98.20;;;;;;5074912;28;20024;-59
2021/04/16 06:47:51;;;;;;;8.43;5.88;;;18.90;99.00;;;;;;5074987;28;20442;-61
2021/04/16 06:50:19;;;;;;;11.40;7.22;;;18.80;98.70;;;;;;5073659;28;20020;-58
2021/04/16 06:53:24;;;;;;;18.83;5.90;;;18.70;99.60;;;;;;5074888;28;20074;-59
2021/04/16 06:56:03;;;;;;;11.88;6.88;;;18.70;99.30;;;;;;5073439;28;20081;-59
2021/04/16 06:58:42;;;;;;;9.00;6.32;;;18.60;98.90;;;;;;5074638;28;20040;-59
2021/04/16 07:01:31;;;;;;;8.57;6.13;;;18.60;99.00;;;;;;5074663;28;20020;-58
2021/04/16 07:04:14;;;;;;;7.80;6.10;;;18.60;98.90;;;;;;5074471;28;20035;-60
2021/04/16 07:06:41;;;;;;;8.52;7.15;;;18.60;99.10;;;;;;5074464;28;20483;-60
2021/04/16 07:09:19;;;;;;;9.55;6.95;;;18.50;99.00;;;;;;5074254;28;20070;-59
2021/04/16 07:11:55;;;;;;;7.32;6.60;;;18.40;99.40;;;;;;5074408;28;20122;-58
2021/04/16 07:14:37;;;;;;;10.18;7.50;;;18.40;99.20;;;;;;5074361;28;20031;-59
2021/04/16 07:17:08;;;;;;;12.65;7.13;;;18.20;99.30;;;;;;5074395;28;20017;-59
2021/04/16 07:19:37;;;;;;;10.93;6.22;;;18.20;99.60;;;;;;5074214;28;20477;-59
2021/04/16 07:22:08;;;;;;;10.52;6.95;;;18.20;99.70;;;;;;5074186;28;20088;-59
2021/04/16 07:24:36;;;;;;;8.45;6.00;;;18.10;99.70;;;;;;5073989;28;20037;-59
2021/04/16 07:27:21;;;;;;;11.57;7.53;;;18.10;99.90;;;;;;5073968;28;20035;-59
2021/04/16 07:29:53;;;;;;;10.23;8.02;;;18.10;99.90;;;;;;5074189;28;20021;-59
2021/04/16 07:32:29;;;;;;;8.15;7.40;;;18.10;99.70;;;;;;5074059;28;20107;-59
2021/04/16 07:35:16;;;;;;;8.15;7.20;;;18.10;99.90;;;;;;5073907;28;20017;-59
2021/04/16 07:37:47;;;;;;;10.38;7.07;;;18.10;99.90;;;;;;5073814;28;20504;-59
2021/04/16 07:40:29;;;;;;;9.20;7.18;;;18.10;99.40;;;;;;5073567;28;20048;-58
2021/04/16 07:42:57;;;;;;;10.02;7.65;;;18.10;99.50;;;;;;5073913;28;20020;-58
2021/04/16 07:45:24;;;;;;;9.20;7.88;;;18.00;99.40;;;;;;5073495;28;20024;-59
2021/04/16 07:48:14;;;;;;;9.10;8.13;;;18.00;99.30;;;;;;5073673;28;20492;-59
2021/04/16 07:50:47;;;;;;;9.98;9.00;;;18.00;99.90;;;;;;5073553;28;20035;-59
2021/04/16 07:53:41;;;;;;;8.93;8.13;;;18.00;99.50;;;;;;5073725;28;20031;-59
2021/04/16 07:56:18;;;;;;;11.15;7.60;;;17.90;99.40;;;;;;5073449;28;20026;-60
2021/04/16 07:58:59;;;;;;;10.05;8.05;;;17.90;99.90;;;;;;5073394;28;20036;-60
2021/04/16 08:01:26;;;;;;;10.80;7.45;;;17.90;99.20;;;;;;5073378;28;20086;-60
2021/04/16 08:04:11;;;;;;;10.23;7.22;;;17.90;99.60;;;;;;5073378;28;20460;-61
2021/04/16 08:06:42;;;;;;;9.15;7.18;;;18.00;99.50;;;;;;5073370;28;20039;-61
2021/04/16 08:09:30;;;;;;;9.80;7.43;;;17.90;99.40;;;;;;5072173;28;20035;-60
2021/04/16 08:12:11;;;;;;;7.63;6.93;;;17.90;99.90;;;;;;5073407;28;20426;-61
2021/04/16 08:14:42;;;;;;;9.05;5.85;;;17.80;99.80;;;;;;5073591;28;20055;-62
2021/04/16 08:17:40;;;;;;;9.38;7.03;;;17.80;99.30;;;;;;5073357;28;20021;-63
2021/04/16 08:20:27;;;;;;;10.38;6.68;;;17.80;99.60;;;;;;5061105;28;20031;-63
2021/04/16 08:22:56;;;;;;;9.43;7.32;;;17.80;99.90;;;;;;5073106;28;20191;-62
2021/04/16 08:25:42;;;;;;;9.63;6.63;;;17.90;99.90;;;;;;5073147;28;20500;-62
2021/04/16 08:28:18;;;;;;;11.18;6.63;;;17.80;99.60;;;;;;5073312;28;20016;-62
2021/04/16 08:31:06;;;;;;;9.40;6.07;;;17.80;99.70;;;;;;5073638;28;20017;-63
2021/04/16 08:33:54;;;;;;;6.47;5.35;;;17.80;99.40;;;;;;5073318;28;20366;-63
2021/04/16 08:36:34;;;;;;;6.10;5.43;;;17.70;99.80;;;;;;5073219;28;20021;-63
2021/04/16 08:39:06;;;;;;;7.70;5.55;;;17.80;99.60;;;;;;5072614;28;20068;-63
2021/04/16 08:41:39;;;;;;;8.90;5.60;;;17.70;99.20;;;;;;5073004;28;20085;-64
2021/04/16 08:44:10;;;;;;;6.75;5.35;;;17.60;99.00;;;;;;5073101;28;20025;-61
2021/04/16 08:46:43;;;;;;;10.77;5.50;;;17.60;99.40;;;;;;5073054;28;20113;-64
2021/04/16 08:49:17;;;;;;;8.45;5.57;;;17.60;99.40;;;;;;5071804;28;20370;-64
2021/04/16 08:52:02;;;;;;;9.27;5.60;;;17.60;99.70;;;;;;5073062;28;20099;-63
2021/04/16 08:54:33;;;;;;;8.35;5.57;;;17.60;99.90;;;;;;5073013;28;20173;-63
2021/04/16 08:57:06;;;;;;;9.00;6.57;;;17.50;99.90;;;;;;5071760;28;20040;-64
2021/04/16 08:59:59;;;;;;;8.43;5.68;;;17.60;99.90;;;;;;5072845;28;20039;-63
2021/04/16 09:02:47;;;;;;;10.00;5.85;;;17.60;99.90;;;;;;5072971;28;20029;-64
2021/04/16 09:05:19;;;;;;;10.05;5.78;;;17.60;99.70;;;;;;5072911;28;20024;-64
2021/04/16 09:08:15;;;;;;;9.52;5.97;;;17.70;99.60;;;;;;5072746;28;20413;-64
2021/04/16 09:10:48;;;;;;;11.98;6.05;;;17.70;99.60;;;;;;5072808;28;20019;-63
2021/04/16 09:13:41;;;;;;;8.70;5.25;;;17.70;99.70;;;;;;5072663;28;20044;-64
2021/04/16 09:16:18;;;;;;;9.35;5.60;;;17.80;99.80;;;;;;5071290;28;20028;-64
2021/04/16 09:18:54;;;;;;;9.75;5.80;;;17.70;99.60;;;;;;5072724;28;20366;-63
2021/04/16 09:21:34;;;;;;;6.82;5.40;;;17.80;99.80;;;;;;5073008;28;20029;-64
2021/04/16 09:24:08;;;;;;;8.70;5.40;;;17.80;99.70;;;;;;5072726;28;20029;-64
2021/04/16 09:26:50;;;;;;;9.10;5.65;;;17.80;99.80;;;;;;5072711;28;20384;-63
2021/04/16 09:29:29;;;;;;;10.35;7.07;;;17.80;99.30;;;;;;5072851;28;20025;-63
2021/04/16 09:32:04;;;;;;;11.82;5.93;;;17.80;99.30;;;;;;5072595;28;20021;-64
2021/04/16 09:34:44;;;;;;;8.40;5.75;;;17.80;99.60;;;;;;5072720;28;20445;-63
2021/04/16 09:37:25;;;;;;;6.40;5.15;;;17.80;99.40;;;;;;5072690;28;20499;-64
2021/04/16 09:40:28;;;;;;;9.43;6.30;;;17.80;99.50;;;;;;5072475;28;20041;-64
2021/04/16 09:43:09;;;;;;;6.90;4.90;;;17.80;99.10;;;;;;5072564;28;20017;-65
2021/04/16 09:45:40;;;;;;;8.73;6.65;;;17.80;99.40;;;;;;5072612;28;20031;-65
2021/04/16 09:48:06;;;;;;;;;;;17.80;99.20;;;;;;5072926;28;20366;-64
2021/04/16 09:50:45;;;;;;;6.47;5.60;;;17.80;99.20;;;;;;5073676;28;19908;-64
2021/04/16 09:53:17;;;;;;;9.98;5.70;;;17.80;98.90;;;;;;5076375;28;20025;-63
2021/04/16 09:56:00;;;;;;;9.20;5.40;;;17.80;99.20;;;;;;5076227;28;20026;-64
2021/04/16 09:58:50;;;;;;;13.55;6.03;;;17.80;99.50;;;;;;5076108;28;20044;-64
2021/04/16 10:01:18;;;;;;;6.72;5.40;;;17.80;99.20;;;;;;5066786;28;20046;-64
2021/04/16 10:03:52;;;;;;;9.60;5.75;;;17.80;99.80;;;;;;5075886;28;20024;-64
2021/04/16 10:06:32;;;;;;;7.22;5.10;;;17.80;99.70;;;;;;5075817;28;20028;-64
2021/04/16 10:09:05;;;;;;;9.60;5.10;;;17.70;99.90;;;;;;5075928;28;20048;-64
2021/04/16 10:11:32;;;;;;;8.10;5.47;;;17.70;99.70;;;;;;5075881;28;20032;-64
2021/04/16 10:14:20;;;;;;;11.43;5.53;;;17.60;99.90;;;;;;5075829;28;20066;-64
2021/04/16 10:16:53;;;;;;;8.07;5.40;;;17.50;99.70;;;;;;5076026;28;20028;-64
2021/04/16 10:19:28;;;;;;;11.15;6.13;;;17.50;99.90;;;;;;5075766;28;20541;-64
2021/04/16 10:21:57;;;;;;;8.73;5.15;;;17.40;99.90;;;;;;5075667;28;20481;-64
2021/04/16 10:54:36;;;;;;;8.98;6.00;;;17.20;99.90;;;;;;5075550;28;20035;-63
2021/04/16 12:38:48;;;;;;;8.45;7.22;;;16.80;99.90;;;;;;5073577;28;20028;-64
2021/04/16 12:41:22;;;;;;;9.23;7.60;;;16.80;99.90;;;;;;5073176;28;20024;-64
2021/04/16 12:43:51;;;;;;;8.15;7.25;;;16.80;99.90;;;;;;5073212;28;20361;-64
2021/04/16 12:46:29;;;;;;;13.07;7.47;;;16.80;99.90;;;;;;5073003;28;20120;-64
2021/04/16 12:48:56;;;;;;;13.68;8.07;;;16.70;99.90;;;;;;5073144;28;20027;-64
2021/04/16 12:51:23;;;;;;;8.98;7.10;;;16.70;99.90;;;;;;5073066;28;20024;-63
2021/04/16 12:53:51;;;;;;;8.18;7.00;;;16.80;99.90;;;;;;5073086;28;20024;-64
2021/04/16 12:56:24;;;;;;;8.25;6.90;;;16.70;99.90;;;;;;5072997;28;20405;-64
2021/04/16 12:58:54;;;;;;;8.95;7.72;;;16.80;99.90;;;;;;5072992;28;20064;-64
2021/04/16 13:01:28;;;;;;;9.67;7.47;;;16.80;99.90;;;;;;5073012;28;20052;-64
2021/04/16 13:03:56;;;;;;;10.70;7.80;;;16.80;99.90;;;;;;5072832;28;20024;-64
2021/04/16 13:06:33;;;;;;;10.30;7.50;;;16.90;99.90;;;;;;5072833;28;20392;-63
2021/04/16 13:09:01;;;;;;;8.73;7.88;;;16.90;99.90;;;;;;5072990;28;20092;-63
2021/04/16 13:11:29;;;;;;;9.18;8.27;;;16.90;99.90;;;;;;5072849;28;20158;-64
2021/04/16 13:13:57;;;;;;;10.50;7.78;;;16.90;99.90;;;;;;5073029;28;20029;-64
2021/04/16 13:16:25;;;;;;;11.20;7.80;;;16.90;99.90;;;;;;5072859;28;20103;-64
2021/04/16 13:18:55;;;;;;;9.55;7.50;;;16.90;99.90;;;;;;5072716;28;20029;-64
2021/04/16 13:21:28;;;;;;;9.52;7.50;;;16.90;99.90;;;;;;5072763;28;20025;-64
2021/04/16 13:23:56;;;;;;;8.45;7.68;;;16.90;99.90;;;;;;5072926;28;20032;-64
2021/04/16 13:26:25;;;;;;;10.88;8.15;;;17.00;99.90;;;;;;5076603;28;20112;-63
2021/04/16 13:28:53;;;;;;;11.65;8.05;;;17.00;99.90;;;;;;5076700;28;20074;-63
2021/04/16 13:31:21;;;;;;;12.32;8.32;;;17.00;99.90;;;;;;5076637;28;20021;-64
2021/04/16 13:33:50;;;;;;;9.13;7.85;;;17.00;99.90;;;;;;5076508;28;20048;-64
2021/04/16 13:36:26;;;;;;;8.85;7.55;;;16.90;99.90;;;;;;5076794;28;20111;-64
2021/04/16 13:38:54;;;;;;;8.45;7.30;;;17.00;99.90;;;;;;5076338;28;20037;-63
2021/04/16 13:41:22;;;;;;;9.55;7.82;;;17.00;99.90;;;;;;5076472;28;20032;-64
2021/04/16 13:43:55;;;;;;;7.38;6.68;;;16.90;99.90;;;;;;5076387;28;20029;-63
2021/04/16 13:46:27;;;;;;;8.27;7.10;;;17.00;99.90;;;;;;5076260;28;20123;-64
2021/04/16 13:48:55;;;;;;;9.68;7.40;;;16.90;99.90;;;;;;5076224;28;20501;-63
2021/04/16 13:51:24;;;;;;;7.75;7.05;;;16.80;99.90;;;;;;5076430;28;20021;-64
2021/04/16 13:53:53;;;;;;;9.57;6.97;;;16.80;99.90;;;;;;5076149;28;20028;-64
2021/04/16 13:56:21;;;;;;;8.43;7.13;;;16.70;99.90;;;;;;5076164;28;20035;-64
2021/04/16 13:58:48;;;;;;;12.60;7.30;;;16.70;99.90;;;;;;5076077;28;20024;-64
2021/04/16 14:01:15;;;;;;;11.50;7.97;;;16.60;99.90;;;;;;5075972;28;20059;-63
2021/04/16 14:03:48;;;;;;;11.45;7.10;;;16.50;99.90;;;;;;5076058;28;20020;-64
2021/04/16 14:06:21;;;;;;;8.23;7.15;;;16.40;99.90;;;;;;5075967;28;20024;-64
2021/04/16 14:08:57;;;;;;;7.95;6.90;;;16.30;99.90;;;;;;5075885;28;20021;-64
2021/04/16 14:11:25;;;;;;;7.55;6.78;;;16.20;99.90;;;;;;5075839;28;20049;-64
2021/04/16 14:13:53;;;;;;;9.73;6.90;;;16.20;99.90;;;;;;5075812;28;20023;-64
2021/04/16 14:16:33;;;;;;;5.95;5.45;;;16.20;99.90;;;;;;5075765;28;20029;-64
2021/04/16 14:19:07;;;;;;;7.82;7.03;;;16.10;99.90;;;;;;5075861;28;20036;-64
2021/04/16 14:21:40;;;;;;;9.95;5.75;;;16.10;99.90;;;;;;5075674;28;20025;-63
2021/04/16 14:24:11;;;;;;;7.47;6.00;;;16.00;99.90;;;;;;5075667;28;20028;-64
2021/04/16 14:26:38;;;;;;;;;;;16.00;99.90;;;;;;5075927;28;20025;-61
2021/04/16 14:29:06;;;;;;;9.43;5.72;;;15.90;99.90;;;;;;5075510;28;19905;-62
2021/04/16 14:31:36;;;;;;;7.57;5.72;;;15.90;99.90;;;;;;5075496;28;20017;-64
2021/04/16 14:34:04;;;;;;;;;;;15.80;99.90;;;;;;5076280;28;20087;-63
2021/04/16 14:36:31;;;;;;;9.63;5.88;;;15.70;99.90;;;;;;5074522;28;19908;-62
2021/04/16 14:38:59;;;;;;;7.43;6.38;;;15.60;99.90;;;;;;5075155;28;20050;-61
2021/04/16 14:41:29;;;;;;;10.73;6.25;;;15.60;99.90;;;;;;5075274;28;20099;-62
2021/04/16 14:43:57;;;;;;;11.10;6.95;;;15.60;99.90;;;;;;5075324;28;20020;-61
2021/04/16 14:46:24;;;;;;;9.57;7.05;;;15.60;99.90;;;;;;5073809;28;20436;-61
2021/04/16 14:48:54;;;;;;;8.07;6.30;;;15.50;99.90;;;;;;5075159;28;20028;-62
2021/04/16 14:51:25;;;;;;;9.60;6.57;;;15.40;99.90;;;;;;5075177;28;20059;-61
2021/04/16 14:54:09;;;;;;;9.63;6.32;;;15.40;99.90;;;;;;5075074;28;20096;-62
2021/04/16 14:56:36;;;;;;;7.60;6.53;;;15.30;99.90;;;;;;5075196;28;20028;-61
2021/04/16 14:59:32;;;;;;;10.65;6.78;;;15.20;99.90;;;;;;5075208;28;20087;-61
2021/04/16 15:01:59;;;;;;;11.07;7.18;;;15.20;99.90;;;;;;5071978;28;20041;-61
2021/04/16 15:04:27;;;;;;;7.25;6.60;;;15.20;99.90;;;;;;5074811;28;20025;-63
2021/04/16 15:07:00;;;;;;;7.93;7.13;;;15.20;99.90;;;;;;5074775;28;20025;-61
2021/04/16 15:09:45;;;;;;;7.65;6.70;;;15.20;99.90;;;;;;5074845;28;20408;-63
2021/04/16 15:12:19;;;;;;;7.38;6.68;;;15.20;99.90;;;;;;5074688;28;20028;-63
2021/04/16 15:14:48;;;;;;;7.60;6.57;;;15.20;99.90;;;;;;5074753;28;20012;-63
2021/04/16 15:17:19;;;;;;;9.18;5.70;;;15.20;99.90;;;;;;5074829;28;20495;-62
2021/04/16 15:19:49;;;;;;;6.93;6.10;;;15.30;99.90;;;;;;5074611;28;20030;-63